Baldwin, Kansas
Current Conditions -  °F | °C
As of 8:12 AM on Thursday 27 Nov 2014 (Local Time) from KLWC Reporting Station
Haze Haze  
Wind Chill: 25°   Ceiling: 1300
Heat Index: 25°   Visibility: 3mi
Dew Point: 19°   Wind: 3mph
Humidity: 78%   Direction: 360°N
Pressure: 30.55"   Gusts: NA
Location:  38.8017°N, 95.2855°W
Report Text: KLWC 271412Z AUTO 36003KT 3SM HZ OVC013 M04/M07 A3055 RMK AO2 T10391072
Loading
Personal Weather Stations






























Interactive Weather Map New forecast layout! Learn more

10-Day Weather Forecast

Advertisements
Track Severe Weather on mobile